sensor_id;sensor_type;location;lat;lon;timestamp;pressure;altitude;pressure_sealevel;temperature;humidity
7824;BME280;3957;48.61947800;9.05303100;2023-02-16T00:00:19;97028.22;;;-0.60;100.00
7824;BME280;3957;48.61947800;9.05303100;2023-02-16T00:01:23;97024.63;;;-0.59;100.00
7824;BME280;3957;48.61947800;9.05303100;2023-02-16T00:02:23;97031.06;;;-0.63;100.00
7824;BME280;3957;48.61947800;9.05303100;2023-02-16T00:03:24;97028.44;;;-0.63;100.00
7824;BME280;3957;48.61947800;9.05303100;2023-02-16T00:04:26;97018.63;;;-0.61;100.00
7824;BME280;3957;48.61947800;9.05303100;2023-02-16T00:05:33;97023.91;;;-0.61;100.00
7824;BME280;3957;48.61947800;9.05303100;2023-02-16T00:06:33;97023.91;;;-0.61;100.00
7824;BME280;3957;48.61947800;9.05303100;2023-02-16T00:07:34;97024.75;;;-0.60;100.00
7824;BME280;3957;48.61947800;9.05303100;2023-02-16T00:08:34;97012.31;;;-0.58;100.00
7824;BME280;3957;48.61947800;9.05303100;2023-02-16T00:09:35;97022.94;;;-0.60;100.00
7824;BME280;3957;48.61947800;9.05303100;2023-02-16T00:10:37;97015.81;;;-0.58;100.00
7824;BME280;3957;48.61947800;9.05303100;2023-02-16T00:11:38;97017.47;;;-0.57;100.00
7824;BME280;3957;48.61947800;9.05303100;2023-02-16T00:12:57;97013.91;;;-0.56;100.00
7824;BME280;3957;48.61947800;9.05303100;2023-02-16T00:14:16;97024.19;;;-0.53;100.00
7824;BME280;3957;48.61947800;9.05303100;2023-02-16T00:15:18;97017.28;;;-0.54;100.00
7824;BME280;3957;48.61947800;9.05303100;2023-02-16T00:16:21;97019.16;;;-0.56;100.00
7824;BME280;3957;48.61947800;9.05303100;2023-02-16T00:17:22;97013.38;;;-0.61;100.00
7824;BME280;3957;48.61947800;9.05303100;2023-02-16T00:18:22;97018.75;;;-0.62;100.00
7824;BME280;3957;48.61947800;9.05303100;2023-02-16T00:19:25;97021.38;;;-0.62;100.00
7824;BME280;3957;48.61947800;9.05303100;2023-02-16T00:20:26;97007.47;;;-0.52;100.00
7824;BME280;3957;48.61947800;9.05303100;2023-02-16T00:21:29;97011.16;;;-0.54;100.00
7824;BME280;3957;48.61947800;9.05303100;2023-02-16T00:22:29;97014.75;;;-0.55;100.00
7824;BME280;3957;48.61947800;9.05303100;2023-02-16T00:23:30;97009.09;;;-0.62;100.00
7824;BME280;3957;48.61947800;9.05303100;2023-02-16T00:24:30;97019.81;;;-0.65;100.00
7824;BME280;3957;48.61947800;9.05303100;2023-02-16T00:25:31;97015.75;;;-0.69;100.00
7824;BME280;3957;48.61947800;9.05303100;2023-02-16T00:26:33;97021.66;;;-0.78;100.00
7824;BME280;3957;48.61947800;9.05303100;2023-02-16T00:27:34;97016.13;;;-0.87;100.00
7824;BME280;3957;48.61947800;9.05303100;2023-02-16T00:28:34;97021.16;;;-0.83;100.00
7824;BME280;3957;48.61947800;9.05303100;2023-02-16T00:29:36;97018.41;;;-0.82;100.00
7824;BME280;3957;48.61947800;9.05303100;2023-02-16T00:30:37;97023.88;;;-0.85;100.00
7824;BME280;3957;48.61947800;9.05303100;2023-02-16T00:31:38;97021.59;;;-0.90;100.00
7824;BME280;3957;48.61947800;9.05303100;2023-02-16T00:32:38;97019.91;;;-0.91;100.00
7824;BME280;3957;48.61947800;9.05303100;2023-02-16T00:33:39;97018.44;;;-0.95;100.00
7824;BME280;3957;48.61947800;9.05303100;2023-02-16T00:34:40;97022.25;;;-0.99;100.00
7824;BME280;3957;48.61947800;9.05303100;2023-02-16T00:35:41;97026.88;;;-1.03;100.00
7824;BME280;3957;48.61947800;9.05303100;2023-02-16T00:36:41;97018.78;;;-0.99;100.00
7824;BME280;3957;48.61947800;9.05303100;2023-02-16T00:37:42;97025.06;;;-0.89;100.00
7824;BME280;3957;48.61947800;9.05303100;2023-02-16T00:38:42;97029.22;;;-0.74;100.00
7824;BME280;3957;48.61947800;9.05303100;2023-02-16T00:39:43;97022.13;;;-0.60;100.00
7824;BME280;3957;48.61947800;9.05303100;2023-02-16T00:40:44;97028.31;;;-0.61;100.00
7824;BME280;3957;48.61947800;9.05303100;2023-02-16T00:41:45;97023.19;;;-0.63;100.00
7824;BME280;3957;48.61947800;9.05303100;2023-02-16T00:42:53;97027.38;;;-0.60;100.00
7824;BME280;3957;48.61947800;9.05303100;2023-02-16T00:43:55;97031.91;;;-0.62;100.00
7824;BME280;3957;48.61947800;9.05303100;2023-02-16T00:44:57;97027.81;;;-0.66;100.00
7824;BME280;3957;48.61947800;9.05303100;2023-02-16T00:45:58;97025.00;;;-0.76;100.00
7824;BME280;3957;48.61947800;9.05303100;2023-02-16T00:47:09;97024.59;;;-0.83;100.00
7824;BME280;3957;48.61947800;9.05303100;2023-02-16T00:48:12;97030.66;;;-0.94;100.00
7824;BME280;3957;48.61947800;9.05303100;2023-02-16T00:49:17;97033.09;;;-1.04;100.00
7824;BME280;3957;48.61947800;9.05303100;2023-02-16T00:50:32;97027.72;;;-1.15;100.00
7824;BME280;3957;48.61947800;9.05303100;2023-02-16T00:51:32;97021.00;;;-1.19;100.00
7824;BME280;3957;48.61947800;9.05303100;2023-02-16T00:52:38;97031.84;;;-1.24;100.00
7824;BME280;3957;48.61947800;9.05303100;2023-02-16T00:53:41;97022.59;;;-1.29;100.00
7824;BME280;3957;48.61947800;9.05303100;2023-02-16T00:54:42;97027.13;;;-1.31;100.00
7824;BME280;3957;48.61947800;9.05303100;2023-02-16T00:55:42;97017.88;;;-1.37;100.00
7824;BME280;3957;48.61947800;9.05303100;2023-02-16T00:56:43;97019.69;;;-1.38;100.00
7824;BME280;3957;48.61947800;9.05303100;2023-02-16T00:57:55;97019.69;;;-1.38;100.00
7824;BME280;3957;48.61947800;9.05303100;2023-02-16T00:59:11;97022.53;;;-1.41;100.00
7824;BME280;3957;48.61947800;9.05303100;2023-02-16T01:00:23;97022.84;;;-1.32;100.00
7824;BME280;3957;48.61947800;9.05303100;2023-02-16T01:01:28;97015.25;;;-1.37;100.00
7824;BME280;3957;48.61947800;9.05303100;2023-02-16T01:02:30;97016.84;;;-1.34;100.00
7824;BME280;3957;48.61947800;9.05303100;2023-02-16T01:03:30;97018.75;;;-1.37;100.00
7824;BME280;3957;48.61947800;9.05303100;2023-02-16T01:04:31;97020.50;;;-1.37;100.00
7824;BME280;3957;48.61947800;9.05303100;2023-02-16T01:05:31;97024.28;;;-1.41;100.00
7824;BME280;3957;48.61947800;9.05303100;2023-02-16T01:06:33;97011.50;;;-1.46;100.00
7824;BME280;3957;48.61947800;9.05303100;2023-02-16T01:07:52;97015.16;;;-1.48;100.00
7824;BME280;3957;48.61947800;9.05303100;2023-02-16T01:09:13;97018.31;;;-1.43;100.00
7824;BME280;3957;48.61947800;9.05303100;2023-02-16T01:10:36;97008.44;;;-1.27;100.00
7824;BME280;3957;48.61947800;9.05303100;2023-02-16T01:11:55;97009.25;;;-1.26;100.00
7824;BME280;3957;48.61947800;9.05303100;2023-02-16T01:12:57;97021.66;;;-1.28;100.00
7824;BME280;3957;48.61947800;9.05303100;2023-02-16T01:13:57;97022.50;;;-1.28;100.00
7824;BME280;3957;48.61947800;9.05303100;2023-02-16T01:14:58;97022.38;;;-1.26;100.00
7824;BME280;3957;48.61947800;9.05303100;2023-02-16T01:15:58;97013.47;;;-1.24;100.00
7824;BME280;3957;48.61947800;9.05303100;2023-02-16T01:17:02;97021.97;;;-1.20;100.00
7824;BME280;3957;48.61947800;9.05303100;2023-02-16T01:18:03;97018.38;;;-1.19;100.00
7824;BME280;3957;48.61947800;9.05303100;2023-02-16T01:19:05;97018.28;;;-1.17;100.00
7824;BME280;3957;48.61947800;9.05303100;2023-02-16T01:20:18;97019.84;;;-1.15;100.00
7824;BME280;3957;48.61947800;9.05303100;2023-02-16T01:21:19;97024.69;;;-1.09;100.00
7824;BME280;3957;48.61947800;9.05303100;2023-02-16T01:22:21;97022.66;;;-1.05;100.00
7824;BME280;3957;48.61947800;9.05303100;2023-02-16T01:23:21;97013.63;;;-1.01;100.00
7824;BME280;3957;48.61947800;9.05303100;2023-02-16T01:24:21;97022.13;;;-0.97;100.00
7824;BME280;3957;48.61947800;9.05303100;2023-02-16T01:25:22;97023.38;;;-0.90;100.00
7824;BME280;3957;48.61947800;9.05303100;2023-02-16T01:26:22;97024.00;;;-0.87;100.00
7824;BME280;3957;48.61947800;9.05303100;2023-02-16T01:27:23;97028.59;;;-0.77;100.00
7824;BME280;3957;48.61947800;9.05303100;2023-02-16T01:28:25;97026.44;;;-0.59;100.00
7824;BME280;3957;48.61947800;9.05303100;2023-02-16T01:29:25;97022.13;;;-0.60;100.00
7824;BME280;3957;48.61947800;9.05303100;2023-02-16T01:30:26;97017.75;;;-0.48;100.00
7824;BME280;3957;48.61947800;9.05303100;2023-02-16T01:31:26;97021.78;;;-0.31;100.00
7824;BME280;3957;48.61947800;9.05303100;2023-02-16T01:32:27;97026.81;;;-0.28;100.00
7824;BME280;3957;48.61947800;9.05303100;2023-02-16T01:33:27;97016.41;;;-0.30;100.00
7824;BME280;3957;48.61947800;9.05303100;2023-02-16T01:34:28;97011.59;;;-0.36;100.00
7824;BME280;3957;48.61947800;9.05303100;2023-02-16T01:35:32;97008.59;;;-0.43;100.00
7824;BME280;3957;48.61947800;9.05303100;2023-02-16T01:36:37;97013.34;;;-0.48;100.00
7824;BME280;3957;48.61947800;9.05303100;2023-02-16T01:37:40;97018.31;;;-0.56;100.00
7824;BME280;3957;48.61947800;9.05303100;2023-02-16T01:38:40;97024.00;;;-0.62;100.00
7824;BME280;3957;48.61947800;9.05303100;2023-02-16T01:39:40;97021.50;;;-0.64;100.00
7824;BME280;3957;48.61947800;9.05303100;2023-02-16T01:40:44;97009.22;;;-0.63;100.00
7824;BME280;3957;48.61947800;9.05303100;2023-02-16T01:43:40;97009.63;;;-0.70;100.00
7824;BME280;3957;48.61947800;9.05303100;2023-02-16T01:44:45;97009.13;;;-0.75;100.00
7824;BME280;3957;48.61947800;9.05303100;2023-02-16T01:45:58;97012.91;;;-0.79;100.00
7824;BME280;3957;48.61947800;9.05303100;2023-02-16T01:48:25;97007.72;;;-0.92;100.00
7824;BME280;3957;48.61947800;9.05303100;2023-02-16T01:49:26;97009.09;;;-0.99;100.00
7824;BME280;3957;48.61947800;9.05303100;2023-02-16T01:50:38;97010.91;;;-0.99;100.00
7824;BME280;3957;48.61947800;9.05303100;2023-02-16T01:53:02;97011.31;;;-1.06;100.00
7824;BME280;3957;48.61947800;9.05303100;2023-02-16T01:55:56;97003.91;;;-1.12;100.00
7824;BME280;3957;48.61947800;9.05303100;2023-02-16T01:57:48;97003.25;;;-1.15;100.00
7824;BME280;3957;48.61947800;9.05303100;2023-02-16T01:58:38;96997.47;;;-1.21;100.00
7824;BME280;3957;48.61947800;9.05303100;2023-02-16T02:02:59;96999.81;;;-1.29;100.00
7824;BME280;3957;48.61947800;9.05303100;2023-02-16T02:04:24;96994.66;;;-1.30;100.00
7824;BME280;3957;48.61947800;9.05303100;2023-02-16T02:05:43;96995.72;;;-1.33;100.00
7824;BME280;3957;48.61947800;9.05303100;2023-02-16T02:06:43;96996.75;;;-1.35;100.00
7824;BME280;3957;48.61947800;9.05303100;2023-02-16T02:07:53;96995.94;;;-1.36;100.00
7824;BME280;3957;48.61947800;9.05303100;2023-02-16T02:09:02;96992.47;;;-1.37;100.00
7824;BME280;3957;48.61947800;9.05303100;2023-02-16T02:10:15;96990.56;;;-1.34;100.00
7824;BME280;3957;48.61947800;9.05303100;2023-02-16T02:11:23;96991.09;;;-1.29;100.00
7824;BME280;3957;48.61947800;9.05303100;2023-02-16T02:12:45;96998.88;;;-1.28;100.00
7824;BME280;3957;48.61947800;9.05303100;2023-02-16T02:13:51;96988.88;;;-1.23;100.00
7824;BME280;3957;48.61947800;9.05303100;2023-02-16T02:14:55;96994.63;;;-1.17;100.00
7824;BME280;3957;48.61947800;9.05303100;2023-02-16T02:15:58;96989.31;;;-1.16;100.00
7824;BME280;3957;48.61947800;9.05303100;2023-02-16T02:17:03;96990.13;;;-1.15;100.00
7824;BME280;3957;48.61947800;9.05303100;2023-02-16T02:18:06;96996.97;;;-1.13;100.00
7824;BME280;3957;48.61947800;9.05303100;2023-02-16T02:19:06;96992.41;;;-1.11;100.00
7824;BME280;3957;48.61947800;9.05303100;2023-02-16T02:20:21;96988.03;;;-1.10;100.00
7824;BME280;3957;48.61947800;9.05303100;2023-02-16T02:22:24;96991.13;;;-1.05;100.00
7824;BME280;3957;48.61947800;9.05303100;2023-02-16T02:27:56;96979.31;;;-0.62;100.00
7824;BME280;3957;48.61947800;9.05303100;2023-02-16T02:30:56;96978.38;;;-0.61;100.00
7824;BME280;3957;48.61947800;9.05303100;2023-02-16T02:35:28;96980.78;;;-0.34;100.00
7824;BME280;3957;48.61947800;9.05303100;2023-02-16T02:36:41;96977.09;;;-0.31;100.00
7824;BME280;3957;48.61947800;9.05303100;2023-02-16T02:41:59;96977.81;;;-0.18;100.00
7824;BME280;3957;48.61947800;9.05303100;2023-02-16T02:43:31;96973.75;;;0.25;100.00
7824;BME280;3957;48.61947800;9.05303100;2023-02-16T02:44:55;96978.44;;;0.44;100.00
7824;BME280;3957;48.61947800;9.05303100;2023-02-16T02:46:02;96962.88;;;0.86;100.00
7824;BME280;3957;48.61947800;9.05303100;2023-02-16T02:47:06;96973.63;;;1.06;100.00
7824;BME280;3957;48.61947800;9.05303100;2023-02-16T02:48:07;96966.53;;;1.17;100.00
7824;BME280;3957;48.61947800;9.05303100;2023-02-16T02:49:07;96968.97;;;1.42;100.00
7824;BME280;3957;48.61947800;9.05303100;2023-02-16T02:51:27;96974.34;;;1.51;100.00
7824;BME280;3957;48.61947800;9.05303100;2023-02-16T02:52:29;96965.25;;;1.44;100.00
7824;BME280;3957;48.61947800;9.05303100;2023-02-16T02:53:29;96967.31;;;1.41;100.00
7824;BME280;3957;48.61947800;9.05303100;2023-02-16T02:54:33;96969.25;;;1.39;100.00
7824;BME280;3957;48.61947800;9.05303100;2023-02-16T02:55:58;96968.69;;;1.24;100.00
7824;BME280;3957;48.61947800;9.05303100;2023-02-16T02:57:26;96967.06;;;1.00;100.00
7824;BME280;3957;48.61947800;9.05303100;2023-02-16T02:58:52;96965.63;;;0.84;100.00
7824;BME280;3957;48.61947800;9.05303100;2023-02-16T03:00:40;96970.06;;;0.73;100.00
7824;BME280;3957;48.61947800;9.05303100;2023-02-16T03:01:49;96965.75;;;0.60;100.00
7824;BME280;3957;48.61947800;9.05303100;2023-02-16T03:02:54;96965.63;;;0.50;100.00
7824;BME280;3957;48.61947800;9.05303100;2023-02-16T03:03:56;96960.25;;;0.41;100.00
7824;BME280;3957;48.61947800;9.05303100;2023-02-16T03:04:58;96964.19;;;0.35;100.00
7824;BME280;3957;48.61947800;9.05303100;2023-02-16T03:07:35;96968.84;;;0.31;100.00
7824;BME280;3957;48.61947800;9.05303100;2023-02-16T03:08:48;96976.03;;;0.41;100.00
7824;BME280;3957;48.61947800;9.05303100;2023-02-16T03:09:49;96969.44;;;0.69;100.00
7824;BME280;3957;48.61947800;9.05303100;2023-02-16T03:11:12;96969.41;;;1.26;100.00
7824;BME280;3957;48.61947800;9.05303100;2023-02-16T03:12:33;96969.50;;;1.35;100.00
7824;BME280;3957;48.61947800;9.05303100;2023-02-16T03:13:51;96963.94;;;1.71;100.00
7824;BME280;3957;48.61947800;9.05303100;2023-02-16T03:14:57;96955.53;;;1.77;100.00
7824;BME280;3957;48.61947800;9.05303100;2023-02-16T03:16:02;96954.94;;;1.74;100.00
7824;BME280;3957;48.61947800;9.05303100;2023-02-16T03:17:07;96958.50;;;1.84;100.00
7824;BME280;3957;48.61947800;9.05303100;2023-02-16T03:18:29;96965.84;;;2.01;100.00
7824;BME280;3957;48.61947800;9.05303100;2023-02-16T03:19:51;96963.22;;;2.23;100.00
7824;BME280;3957;48.61947800;9.05303100;2023-02-16T03:21:12;96962.03;;;2.15;100.00
7824;BME280;3957;48.61947800;9.05303100;2023-02-16T03:22:33;96958.94;;;2.31;99.60
7824;BME280;3957;48.61947800;9.05303100;2023-02-16T03:23:53;96966.81;;;2.52;98.26
7824;BME280;3957;48.61947800;9.05303100;2023-02-16T03:25:14;96965.22;;;2.61;97.27
7824;BME280;3957;48.61947800;9.05303100;2023-02-16T03:26:34;96962.25;;;2.85;95.35
7824;BME280;3957;48.61947800;9.05303100;2023-02-16T03:27:55;96966.56;;;2.86;94.93
7824;BME280;3957;48.61947800;9.05303100;2023-02-16T03:29:15;96971.19;;;2.63;95.47
7824;BME280;3957;48.61947800;9.05303100;2023-02-16T03:30:18;96967.16;;;2.59;96.04
7824;BME280;3957;48.61947800;9.05303100;2023-02-16T03:31:27;96965.81;;;2.44;96.92
7824;BME280;3957;48.61947800;9.05303100;2023-02-16T03:32:29;96968.69;;;2.31;97.39
7824;BME280;3957;48.61947800;9.05303100;2023-02-16T03:33:30;96969.44;;;2.21;97.89
7824;BME280;3957;48.61947800;9.05303100;2023-02-16T03:34:31;96974.41;;;2.15;98.26
7824;BME280;3957;48.61947800;9.05303100;2023-02-16T03:35:34;96972.41;;;2.07;98.53
7824;BME280;3957;48.61947800;9.05303100;2023-02-16T03:36:39;96971.25;;;2.00;99.24
7824;BME280;3957;48.61947800;9.05303100;2023-02-16T03:37:41;96969.91;;;2.06;99.45
7824;BME280;3957;48.61947800;9.05303100;2023-02-16T03:38:42;96967.59;;;1.91;99.88
7824;BME280;3957;48.61947800;9.05303100;2023-02-16T03:39:42;96973.63;;;1.82;100.00
7824;BME280;3957;48.61947800;9.05303100;2023-02-16T03:41:01;96969.50;;;1.89;100.00
7824;BME280;3957;48.61947800;9.05303100;2023-02-16T03:42:01;96978.00;;;1.93;100.00
7824;BME280;3957;48.61947800;9.05303100;2023-02-16T03:43:03;96973.53;;;2.04;100.00
7824;BME280;3957;48.61947800;9.05303100;2023-02-16T03:44:05;96966.69;;;2.02;99.79
7824;BME280;3957;48.61947800;9.05303100;2023-02-16T03:45:06;96980.31;;;2.07;99.40
7824;BME280;3957;48.61947800;9.05303100;2023-02-16T03:46:06;96973.19;;;1.98;99.88
7824;BME280;3957;48.61947800;9.05303100;2023-02-16T03:47:07;96970.69;;;1.96;99.72
7824;BME280;3957;48.61947800;9.05303100;2023-02-16T03:48:10;96972.72;;;1.93;99.99
7824;BME280;3957;48.61947800;9.05303100;2023-02-16T03:49:11;96968.06;;;1.85;100.00
7824;BME280;3957;48.61947800;9.05303100;2023-02-16T03:50:11;96971.84;;;2.03;100.00
7824;BME280;3957;48.61947800;9.05303100;2023-02-16T03:51:12;96971.44;;;2.08;99.93
7824;BME280;3957;48.61947800;9.05303100;2023-02-16T03:52:12;96970.97;;;2.03;99.74
7824;BME280;3957;48.61947800;9.05303100;2023-02-16T03:53:13;96973.13;;;2.09;99.38
7824;BME280;3957;48.61947800;9.05303100;2023-02-16T03:54:13;96975.88;;;2.29;97.92
7824;BME280;3957;48.61947800;9.05303100;2023-02-16T03:55:14;96973.09;;;2.30;97.85
7824;BME280;3957;48.61947800;9.05303100;2023-02-16T03:56:18;96976.53;;;2.42;97.14
7824;BME280;3957;48.61947800;9.05303100;2023-02-16T03:57:18;96976.88;;;2.59;96.31
7824;BME280;3957;48.61947800;9.05303100;2023-02-16T03:58:22;96986.22;;;2.63;95.77
7824;BME280;3957;48.61947800;9.05303100;2023-02-16T03:59:22;96976.78;;;2.70;95.36
7824;BME280;3957;48.61947800;9.05303100;2023-02-16T04:00:23;96980.03;;;2.74;95.27
7824;BME280;3957;48.61947800;9.05303100;2023-02-16T04:01:23;96990.94;;;2.90;94.43
7824;BME280;3957;48.61947800;9.05303100;2023-02-16T04:02:26;96988.88;;;3.03;93.11
7824;BME280;3957;48.61947800;9.05303100;2023-02-16T04:03:26;96981.97;;;3.12;92.28
7824;BME280;3957;48.61947800;9.05303100;2023-02-16T04:04:27;96987.66;;;3.17;91.94
7824;BME280;3957;48.61947800;9.05303100;2023-02-16T04:05:27;96981.97;;;3.12;92.58
7824;BME280;3957;48.61947800;9.05303100;2023-02-16T04:06:27;96992.88;;;3.29;91.85
7824;BME280;3957;48.61947800;9.05303100;2023-02-16T04:07:28;96991.47;;;3.25;91.74
7824;BME280;3957;48.61947800;9.05303100;2023-02-16T04:08:28;96985.06;;;3.37;91.04
7824;BME280;3957;48.61947800;9.05303100;2023-02-16T04:09:29;96983.00;;;3.40;90.75
7824;BME280;3957;48.61947800;9.05303100;2023-02-16T04:10:29;96985.78;;;3.39;90.77
7824;BME280;3957;48.61947800;9.05303100;2023-02-16T04:11:30;96987.44;;;3.30;90.67
7824;BME280;3957;48.61947800;9.05303100;2023-02-16T04:12:49;96990.91;;;3.31;89.92
7824;BME280;3957;48.61947800;9.05303100;2023-02-16T04:13:49;96987.41;;;3.20;90.58
7824;BME280;3957;48.61947800;9.05303100;2023-02-16T04:14:49;96980.50;;;2.98;91.55
7824;BME280;3957;48.61947800;9.05303100;2023-02-16T04:15:50;96983.66;;;2.82;92.62
7824;BME280;3957;48.61947800;9.05303100;2023-02-16T04:16:50;96989.09;;;2.81;93.12
7824;BME280;3957;48.61947800;9.05303100;2023-02-16T04:17:51;96985.59;;;2.80;92.98
7824;BME280;3957;48.61947800;9.05303100;2023-02-16T04:18:51;96985.16;;;2.75;93.90
7824;BME280;3957;48.61947800;9.05303100;2023-02-16T04:19:51;96987.69;;;2.77;93.55
7824;BME280;3957;48.61947800;9.05303100;2023-02-16T04:20:52;96991.50;;;2.63;94.04
7824;BME280;3957;48.61947800;9.05303100;2023-02-16T04:21:53;96993.28;;;2.62;94.37
7824;BME280;3957;48.61947800;9.05303100;2023-02-16T04:22:53;96988.88;;;2.42;95.20
7824;BME280;3957;48.61947800;9.05303100;2023-02-16T04:23:54;96994.94;;;2.53;95.54
7824;BME280;3957;48.61947800;9.05303100;2023-02-16T04:24:54;96995.84;;;2.64;95.02
7824;BME280;3957;48.61947800;9.05303100;2023-02-16T04:25:54;96990.00;;;2.70;95.13
7824;BME280;3957;48.61947800;9.05303100;2023-02-16T04:26:55;96992.75;;;2.59;95.16
7824;BME280;3957;48.61947800;9.05303100;2023-02-16T04:27:55;96990.09;;;2.59;95.68
7824;BME280;3957;48.61947800;9.05303100;2023-02-16T04:28:56;96992.47;;;2.62;95.43
7824;BME280;3957;48.61947800;9.05303100;2023-02-16T04:29:56;96991.41;;;2.74;94.62
7824;BME280;3957;48.61947800;9.05303100;2023-02-16T04:30:56;96997.22;;;2.68;94.39
7824;BME280;3957;48.61947800;9.05303100;2023-02-16T04:31:57;96994.16;;;2.42;95.47
7824;BME280;3957;48.61947800;9.05303100;2023-02-16T04:32:57;96999.09;;;2.25;96.17
7824;BME280;3957;48.61947800;9.05303100;2023-02-16T04:33:58;96988.50;;;2.04;97.06
7824;BME280;3957;48.61947800;9.05303100;2023-02-16T04:34:58;96993.50;;;1.86;98.05
7824;BME280;3957;48.61947800;9.05303100;2023-02-16T04:35:59;96992.97;;;1.71;98.75
7824;BME280;3957;48.61947800;9.05303100;2023-02-16T04:36:59;96984.28;;;1.59;100.00
7824;BME280;3957;48.61947800;9.05303100;2023-02-16T04:38:01;96993.75;;;1.50;100.00
7824;BME280;3957;48.61947800;9.05303100;2023-02-16T04:39:02;96996.66;;;1.47;100.00
7824;BME280;3957;48.61947800;9.05303100;2023-02-16T04:40:04;96994.97;;;1.46;100.00
7824;BME280;3957;48.61947800;9.05303100;2023-02-16T04:41:04;96996.75;;;1.57;100.00
7824;BME280;3957;48.61947800;9.05303100;2023-02-16T04:42:05;96993.44;;;1.44;100.00
7824;BME280;3957;48.61947800;9.05303100;2023-02-16T04:43:05;96992.25;;;1.36;100.00
7824;BME280;3957;48.61947800;9.05303100;2023-02-16T04:44:06;96993.34;;;1.23;100.00
7824;BME280;3957;48.61947800;9.05303100;2023-02-16T04:45:07;96991.56;;;1.12;100.00
7824;BME280;3957;48.61947800;9.05303100;2023-02-16T04:46:07;96999.25;;;1.04;100.00
7824;BME280;3957;48.61947800;9.05303100;2023-02-16T04:47:08;96996.28;;;0.97;100.00
7824;BME280;3957;48.61947800;9.05303100;2023-02-16T04:48:08;97000.13;;;0.93;100.00
7824;BME280;3957;48.61947800;9.05303100;2023-02-16T04:49:08;96994.97;;;1.02;100.00
7824;BME280;3957;48.61947800;9.05303100;2023-02-16T04:50:09;97000.56;;;0.98;100.00
7824;BME280;3957;48.61947800;9.05303100;2023-02-16T04:51:10;97001.03;;;1.14;100.00
7824;BME280;3957;48.61947800;9.05303100;2023-02-16T04:52:11;96999.97;;;1.06;100.00
7824;BME280;3957;48.61947800;9.05303100;2023-02-16T04:53:12;97002.38;;;0.97;100.00
7824;BME280;3957;48.61947800;9.05303100;2023-02-16T04:54:13;97000.81;;;1.17;100.00
7824;BME280;3957;48.61947800;9.05303100;2023-02-16T04:55:13;96998.78;;;1.10;100.00
7824;BME280;3957;48.61947800;9.05303100;2023-02-16T04:56:13;96996.03;;;1.00;100.00
7824;BME280;3957;48.61947800;9.05303100;2023-02-16T04:57:14;96995.09;;;1.01;100.00
7824;BME280;3957;48.61947800;9.05303100;2023-02-16T04:58:15;96996.88;;;1.00;100.00
7824;BME280;3957;48.61947800;9.05303100;2023-02-16T04:59:16;96993.28;;;0.90;100.00
7824;BME280;3957;48.61947800;9.05303100;2023-02-16T05:00:17;96990.75;;;0.77;100.00
7824;BME280;3957;48.61947800;9.05303100;2023-02-16T05:01:23;96985.50;;;0.66;100.00
7824;BME280;3957;48.61947800;9.05303100;2023-02-16T05:02:24;96992.34;;;0.57;100.00
7824;BME280;3957;48.61947800;9.05303100;2023-02-16T05:03:24;96991.03;;;0.52;100.00
7824;BME280;3957;48.61947800;9.05303100;2023-02-16T05:04:24;96988.03;;;0.45;100.00
7824;BME280;3957;48.61947800;9.05303100;2023-02-16T05:05:25;96986.69;;;0.39;100.00
7824;BME280;3957;48.61947800;9.05303100;2023-02-16T05:06:26;96988.84;;;0.45;100.00
7824;BME280;3957;48.61947800;9.05303100;2023-02-16T05:07:26;96993.28;;;0.56;100.00
7824;BME280;3957;48.61947800;9.05303100;2023-02-16T05:08:26;96989.00;;;0.66;100.00
7824;BME280;3957;48.61947800;9.05303100;2023-02-16T05:09:27;96993.66;;;0.63;100.00
7824;BME280;3957;48.61947800;9.05303100;2023-02-16T05:10:27;96993.78;;;0.50;100.00
7824;BME280;3957;48.61947800;9.05303100;2023-02-16T05:11:28;96993.66;;;0.40;100.00
7824;BME280;3957;48.61947800;9.05303100;2023-02-16T05:12:47;96994.59;;;0.28;100.00
7824;BME280;3957;48.61947800;9.05303100;2023-02-16T05:14:06;96998.41;;;0.24;100.00
7824;BME280;3957;48.61947800;9.05303100;2023-02-16T05:15:25;96995.69;;;0.71;100.00
7824;BME280;3957;48.61947800;9.05303100;2023-02-16T05:16:25;97003.38;;;0.62;100.00
7824;BME280;3957;48.61947800;9.05303100;2023-02-16T05:17:26;96999.03;;;0.50;100.00
7824;BME280;3957;48.61947800;9.05303100;2023-02-16T05:18:27;97000.59;;;0.53;100.00
7824;BME280;3957;48.61947800;9.05303100;2023-02-16T05:19:27;97003.69;;;0.69;100.00
7824;BME280;3957;48.61947800;9.05303100;2023-02-16T05:20:28;97002.25;;;0.99;100.00
7824;BME280;3957;48.61947800;9.05303100;2023-02-16T05:21:47;96996.63;;;1.15;100.00
7824;BME280;3957;48.61947800;9.05303100;2023-02-16T05:22:47;97003.66;;;1.37;100.00
7824;BME280;3957;48.61947800;9.05303100;2023-02-16T05:23:47;96996.75;;;1.57;100.00
7824;BME280;3957;48.61947800;9.05303100;2023-02-16T05:24:48;97001.34;;;1.76;100.00
7824;BME280;3957;48.61947800;9.05303100;2023-02-16T05:25:49;97002.78;;;1.80;100.00
7824;BME280;3957;48.61947800;9.05303100;2023-02-16T05:26:49;97003.13;;;1.87;100.00
7824;BME280;3957;48.61947800;9.05303100;2023-02-16T05:27:50;97003.44;;;1.94;100.00
7824;BME280;3957;48.61947800;9.05303100;2023-02-16T05:28:50;96999.94;;;1.93;100.00
7824;BME280;3957;48.61947800;9.05303100;2023-02-16T05:29:51;97001.50;;;1.96;100.00
7824;BME280;3957;48.61947800;9.05303100;2023-02-16T05:30:52;97006.59;;;1.87;100.00
7824;BME280;3957;48.61947800;9.05303100;2023-02-16T05:31:53;97004.47;;;1.81;100.00
7824;BME280;3957;48.61947800;9.05303100;2023-02-16T05:32:53;97010.47;;;1.72;100.00
7824;BME280;3957;48.61947800;9.05303100;2023-02-16T05:33:54;97007.72;;;1.74;100.00
7824;BME280;3957;48.61947800;9.05303100;2023-02-16T05:34:54;97003.44;;;1.61;100.00
7824;BME280;3957;48.61947800;9.05303100;2023-02-16T05:35:54;97009.09;;;1.57;100.00